sensor_id;sensor_type;location;lat;lon;timestamp;P1;durP1;ratioP1;P2;durP2;ratioP2
59828;SDS011;45708;51.848;107.620;2023-07-13T00:03:53;1.58;;;1.48;;
59828;SDS011;45708;51.848;107.620;2023-07-13T00:08:55;0.80;;;0.80;;
59828;SDS011;45708;51.848;107.620;2023-07-13T00:13:56;2.05;;;1.10;;
59828;SDS011;45708;51.848;107.620;2023-07-13T00:18:56;0.77;;;0.68;;
59828;SDS011;45708;51.848;107.620;2023-07-13T00:23:57;0.70;;;0.50;;
59828;SDS011;45708;51.848;107.620;2023-07-13T00:28:58;1.38;;;1.27;;
59828;SDS011;45708;51.848;107.620;2023-07-13T00:33:59;0.43;;;0.43;;
59828;SDS011;45708;51.848;107.620;2023-07-13T00:39:01;1.38;;;0.52;;
59828;SDS011;45708;51.848;107.620;2023-07-13T00:44:02;0.28;;;0.28;;
59828;SDS011;45708;51.848;107.620;2023-07-13T00:49:04;1.20;;;0.38;;
59828;SDS011;45708;51.848;107.620;2023-07-13T00:54:09;0.50;;;0.50;;
59828;SDS011;45708;51.848;107.620;2023-07-13T00:59:13;5.70;;;0.88;;
59828;SDS011;45708;51.848;107.620;2023-07-13T01:04:18;0.85;;;0.82;;
59828;SDS011;45708;51.848;107.620;2023-07-13T01:09:19;0.10;;;0.10;;
59828;SDS011;45708;51.848;107.620;2023-07-13T01:14:20;0.50;;;0.22;;
59828;SDS011;45708;51.848;107.620;2023-07-13T01:19:25;0.77;;;0.50;;
59828;SDS011;45708;51.848;107.620;2023-07-13T01:24:38;0.20;;;0.20;;
59828;SDS011;45708;51.848;107.620;2023-07-13T01:29:40;0.40;;;0.40;;
59828;SDS011;45708;51.848;107.620;2023-07-13T01:34:43;0.22;;;0.22;;
59828;SDS011;45708;51.848;107.620;2023-07-13T01:39:43;3.50;;;0.30;;
59828;SDS011;45708;51.848;107.620;2023-07-13T01:44:44;0.77;;;0.30;;
59828;SDS011;45708;51.848;107.620;2023-07-13T01:49:45;1.30;;;0.52;;
59828;SDS011;45708;51.848;107.620;2023-07-13T01:54:46;0.30;;;0.30;;
59828;SDS011;45708;51.848;107.620;2023-07-13T01:59:47;0.32;;;0.20;;
59828;SDS011;45708;51.848;107.620;2023-07-13T02:04:47;0.43;;;0.20;;
59828;SDS011;45708;51.848;107.620;2023-07-13T02:09:48;0.32;;;0.20;;
59828;SDS011;45708;51.848;107.620;2023-07-13T02:14:49;0.50;;;0.50;;
59828;SDS011;45708;51.848;107.620;2023-07-13T02:19:50;0.50;;;0.38;;
59828;SDS011;45708;51.848;107.620;2023-07-13T02:24:51;1.77;;;1.67;;
59828;SDS011;45708;51.848;107.620;2023-07-13T02:29:52;0.88;;;0.50;;
59828;SDS011;45708;51.848;107.620;2023-07-13T02:34:53;1.02;;;0.20;;
59828;SDS011;45708;51.848;107.620;2023-07-13T02:39:54;0.38;;;0.38;;
59828;SDS011;45708;51.848;107.620;2023-07-13T02:44:54;0.85;;;0.50;;
59828;SDS011;45708;51.848;107.620;2023-07-13T02:49:55;0.95;;;0.45;;
59828;SDS011;45708;51.848;107.620;2023-07-13T02:54:57;0.50;;;0.50;;
59828;SDS011;45708;51.848;107.620;2023-07-13T02:59:58;2.10;;;1.15;;
59828;SDS011;45708;51.848;107.620;2023-07-13T03:04:59;2.08;;;1.10;;
59828;SDS011;45708;51.848;107.620;2023-07-13T03:10:01;1.13;;;0.80;;
59828;SDS011;45708;51.848;107.620;2023-07-13T03:15:02;0.40;;;0.40;;
59828;SDS011;45708;51.848;107.620;2023-07-13T03:20:03;0.68;;;0.55;;
59828;SDS011;45708;51.848;107.620;2023-07-13T03:25:05;0.68;;;0.50;;
59828;SDS011;45708;51.848;107.620;2023-07-13T03:30:06;0.60;;;0.60;;
59828;SDS011;45708;51.848;107.620;2023-07-13T03:35:08;2.05;;;0.80;;
59828;SDS011;45708;51.848;107.620;2023-07-13T03:40:09;0.75;;;0.65;;
59828;SDS011;45708;51.848;107.620;2023-07-13T03:45:11;2.67;;;0.43;;
59828;SDS011;45708;51.848;107.620;2023-07-13T03:50:11;0.88;;;0.65;;
59828;SDS011;45708;51.848;107.620;2023-07-13T03:55:12;0.60;;;0.60;;
59828;SDS011;45708;51.848;107.620;2023-07-13T04:00:13;0.57;;;0.57;;
59828;SDS011;45708;51.848;107.620;2023-07-13T04:05:14;0.55;;;0.40;;
59828;SDS011;45708;51.848;107.620;2023-07-13T04:10:15;1.83;;;0.60;;
59828;SDS011;45708;51.848;107.620;2023-07-13T04:15:16;1.45;;;0.63;;
59828;SDS011;45708;51.848;107.620;2023-07-13T04:20:17;0.98;;;0.75;;
59828;SDS011;45708;51.848;107.620;2023-07-13T04:25:18;0.63;;;0.60;;
59828;SDS011;45708;51.848;107.620;2023-07-13T04:30:19;1.45;;;0.65;;
59828;SDS011;45708;51.848;107.620;2023-07-13T04:35:20;0.57;;;0.35;;
59828;SDS011;45708;51.848;107.620;2023-07-13T04:40:22;0.50;;;0.50;;
59828;SDS011;45708;51.848;107.620;2023-07-13T04:45:23;0.65;;;0.60;;
59828;SDS011;45708;51.848;107.620;2023-07-13T04:50:25;2.10;;;1.00;;
59828;SDS011;45708;51.848;107.620;2023-07-13T04:55:25;0.50;;;0.50;;
59828;SDS011;45708;51.848;107.620;2023-07-13T05:00:26;0.45;;;0.35;;
59828;SDS011;45708;51.848;107.620;2023-07-13T05:05:27;0.47;;;0.40;;
59828;SDS011;45708;51.848;107.620;2023-07-13T05:10:28;1.25;;;0.70;;
59828;SDS011;45708;51.848;107.620;2023-07-13T05:15:29;2.28;;;0.40;;
59828;SDS011;45708;51.848;107.620;2023-07-13T05:20:30;0.82;;;0.50;;
59828;SDS011;45708;51.848;107.620;2023-07-13T05:25:30;0.68;;;0.60;;
59828;SDS011;45708;51.848;107.620;2023-07-13T05:30:31;1.05;;;0.38;;
59828;SDS011;45708;51.848;107.620;2023-07-13T05:35:32;1.40;;;1.00;;
59828;SDS011;45708;51.848;107.620;2023-07-13T05:40:33;0.25;;;0.25;;
59828;SDS011;45708;51.848;107.620;2023-07-13T05:45:33;1.13;;;0.93;;
59828;SDS011;45708;51.848;107.620;2023-07-13T05:50:34;0.65;;;0.63;;
59828;SDS011;45708;51.848;107.620;2023-07-13T05:55:35;4.82;;;1.10;;
59828;SDS011;45708;51.848;107.620;2023-07-13T06:00:36;5.13;;;3.50;;
59828;SDS011;45708;51.848;107.620;2023-07-13T06:05:37;0.65;;;0.60;;
59828;SDS011;45708;51.848;107.620;2023-07-13T06:10:38;1.27;;;0.98;;
59828;SDS011;45708;51.848;107.620;2023-07-13T06:15:39;1.08;;;0.88;;
59828;SDS011;45708;51.848;107.620;2023-07-13T06:20:41;1.25;;;1.15;;
59828;SDS011;45708;51.848;107.620;2023-07-13T06:25:43;1.70;;;1.52;;
59828;SDS011;45708;51.848;107.620;2023-07-13T06:30:44;1.58;;;1.10;;
59828;SDS011;45708;51.848;107.620;2023-07-13T06:35:44;1.65;;;1.10;;
59828;SDS011;45708;51.848;107.620;2023-07-13T06:40:45;1.60;;;1.17;;
59828;SDS011;45708;51.848;107.620;2023-07-13T06:45:48;0.80;;;0.70;;
59828;SDS011;45708;51.848;107.620;2023-07-13T06:50:49;0.75;;;0.75;;
59828;SDS011;45708;51.848;107.620;2023-07-13T06:55:50;1.77;;;1.02;;
59828;SDS011;45708;51.848;107.620;2023-07-13T07:00:51;1.20;;;1.10;;
59828;SDS011;45708;51.848;107.620;2023-07-13T07:05:52;2.15;;;1.27;;
59828;SDS011;45708;51.848;107.620;2023-07-13T07:10:53;1.67;;;1.00;;
59828;SDS011;45708;51.848;107.620;2023-07-13T07:15:54;4.05;;;1.88;;
59828;SDS011;45708;51.848;107.620;2023-07-13T07:20:55;2.15;;;1.27;;
59828;SDS011;45708;51.848;107.620;2023-07-13T07:25:56;5.68;;;1.23;;
59828;SDS011;45708;51.848;107.620;2023-07-13T07:30:57;1.60;;;0.70;;
59828;SDS011;45708;51.848;107.620;2023-07-13T07:35:58;1.80;;;1.13;;
59828;SDS011;45708;51.848;107.620;2023-07-13T07:41:02;0.98;;;0.60;;
59828;SDS011;45708;51.848;107.620;2023-07-13T07:46:04;1.13;;;0.90;;
59828;SDS011;45708;51.848;107.620;2023-07-13T07:51:05;2.17;;;1.98;;
59828;SDS011;45708;51.848;107.620;2023-07-13T07:56:06;1.40;;;0.90;;
59828;SDS011;45708;51.848;107.620;2023-07-13T08:01:06;1.85;;;1.10;;
59828;SDS011;45708;51.848;107.620;2023-07-13T08:06:07;1.52;;;1.00;;
59828;SDS011;45708;51.848;107.620;2023-07-13T08:11:08;1.30;;;1.25;;
59828;SDS011;45708;51.848;107.620;2023-07-13T08:16:09;1.42;;;1.33;;
59828;SDS011;45708;51.848;107.620;2023-07-13T08:21:10;1.77;;;0.88;;
59828;SDS011;45708;51.848;107.620;2023-07-13T08:26:10;0.93;;;0.70;;
59828;SDS011;45708;51.848;107.620;2023-07-13T08:31:11;2.85;;;1.55;;
59828;SDS011;45708;51.848;107.620;2023-07-13T08:36:12;1.85;;;1.15;;
59828;SDS011;45708;51.848;107.620;2023-07-13T08:41:16;1.60;;;1.10;;
59828;SDS011;45708;51.848;107.620;2023-07-13T08:56:44;1.17;;;1.08;;
59828;SDS011;45708;51.848;107.620;2023-07-13T09:12:26;2.45;;;1.50;;
59828;SDS011;45708;51.848;107.620;2023-07-13T09:17:41;1.60;;;1.20;;
59828;SDS011;45708;51.848;107.620;2023-07-13T09:22:49;1.05;;;1.02;;
59828;SDS011;45708;51.848;107.620;2023-07-13T09:27:51;1.38;;;1.20;;
59828;SDS011;45708;51.848;107.620;2023-07-13T09:32:55;0.80;;;0.80;;
59828;SDS011;45708;51.848;107.620;2023-07-13T09:38:03;3.92;;;1.50;;
59828;SDS011;45708;51.848;107.620;2023-07-13T09:43:25;1.05;;;0.98;;
59828;SDS011;45708;51.848;107.620;2023-07-13T09:48:32;1.88;;;0.98;;
59828;SDS011;45708;51.848;107.620;2023-07-13T09:53:35;2.03;;;1.20;;
59828;SDS011;45708;51.848;107.620;2023-07-13T09:58:36;2.75;;;1.10;;
59828;SDS011;45708;51.848;107.620;2023-07-13T10:03:38;2.53;;;1.30;;
59828;SDS011;45708;51.848;107.620;2023-07-13T10:08:39;1.80;;;1.60;;
59828;SDS011;45708;51.848;107.620;2023-07-13T10:13:42;2.17;;;1.13;;
59828;SDS011;45708;51.848;107.620;2023-07-13T10:18:49;1.67;;;1.35;;
59828;SDS011;45708;51.848;107.620;2023-07-13T10:23:58;1.40;;;1.10;;
59828;SDS011;45708;51.848;107.620;2023-07-13T10:29:11;1.50;;;1.30;;
59828;SDS011;45708;51.848;107.620;2023-07-13T10:34:14;1.52;;;1.30;;
59828;SDS011;45708;51.848;107.620;2023-07-13T10:39:16;1.55;;;1.20;;
59828;SDS011;45708;51.848;107.620;2023-07-13T10:44:21;1.20;;;1.15;;
59828;SDS011;45708;51.848;107.620;2023-07-13T10:49:24;1.70;;;1.38;;
59828;SDS011;45708;51.848;107.620;2023-07-13T10:54:32;0.90;;;0.90;;
59828;SDS011;45708;51.848;107.620;2023-07-13T10:59:33;1.67;;;1.20;;
59828;SDS011;45708;51.848;107.620;2023-07-13T11:04:43;4.75;;;2.90;;
59828;SDS011;45708;51.848;107.620;2023-07-13T11:09:51;1.50;;;1.40;;
59828;SDS011;45708;51.848;107.620;2023-07-13T11:19:54;1.08;;;0.93;;
59828;SDS011;45708;51.848;107.620;2023-07-13T11:25:25;1.25;;;1.15;;
59828;SDS011;45708;51.848;107.620;2023-07-13T11:35:29;1.67;;;1.50;;
59828;SDS011;45708;51.848;107.620;2023-07-13T11:40:31;1.90;;;1.40;;
59828;SDS011;45708;51.848;107.620;2023-07-13T11:45:32;3.78;;;1.80;;
59828;SDS011;45708;51.848;107.620;2023-07-13T11:50:33;2.13;;;1.92;;
59828;SDS011;45708;51.848;107.620;2023-07-13T11:55:34;1.70;;;1.60;;
59828;SDS011;45708;51.848;107.620;2023-07-13T12:00:38;3.00;;;1.05;;
59828;SDS011;45708;51.848;107.620;2023-07-13T12:05:54;6.28;;;1.73;;
59828;SDS011;45708;51.848;107.620;2023-07-13T12:11:09;2.67;;;1.25;;
59828;SDS011;45708;51.848;107.620;2023-07-13T12:16:51;2.47;;;1.80;;
59828;SDS011;45708;51.848;107.620;2023-07-13T12:21:48;0.98;;;0.98;;
59828;SDS011;45708;51.848;107.620;2023-07-13T12:26:52;2.92;;;2.03;;
59828;SDS011;45708;51.848;107.620;2023-07-13T12:31:55;2.28;;;2.08;;
59828;SDS011;45708;51.848;107.620;2023-07-13T12:36:56;4.35;;;2.03;;
59828;SDS011;45708;51.848;107.620;2023-07-13T12:47:25;6.93;;;1.88;;
59828;SDS011;45708;51.848;107.620;2023-07-13T12:57:32;2.50;;;2.30;;
59828;SDS011;45708;51.848;107.620;2023-07-13T13:02:38;6.47;;;2.40;;
59828;SDS011;45708;51.848;107.620;2023-07-13T13:07:39;5.53;;;2.35;;
59828;SDS011;45708;51.848;107.620;2023-07-13T13:12:40;4.10;;;2.45;;
59828;SDS011;45708;51.848;107.620;2023-07-13T13:17:41;2.97;;;2.00;;
59828;SDS011;45708;51.848;107.620;2023-07-13T13:22:42;5.90;;;2.17;;
59828;SDS011;45708;51.848;107.620;2023-07-13T13:27:43;5.93;;;2.00;;
59828;SDS011;45708;51.848;107.620;2023-07-13T13:32:46;2.63;;;1.70;;
59828;SDS011;45708;51.848;107.620;2023-07-13T13:37:48;3.75;;;2.30;;
59828;SDS011;45708;51.848;107.620;2023-07-13T13:42:49;4.80;;;3.42;;
59828;SDS011;45708;51.848;107.620;2023-07-13T13:47:49;4.00;;;1.55;;
59828;SDS011;45708;51.848;107.620;2023-07-13T13:52:50;2.35;;;1.20;;
59828;SDS011;45708;51.848;107.620;2023-07-13T13:57:51;4.40;;;2.30;;
59828;SDS011;45708;51.848;107.620;2023-07-13T14:02:52;1.55;;;1.20;;
59828;SDS011;45708;51.848;107.620;2023-07-13T14:07:53;0.85;;;0.80;;
59828;SDS011;45708;51.848;107.620;2023-07-13T14:12:55;2.17;;;0.93;;
59828;SDS011;45708;51.848;107.620;2023-07-13T14:17:57;4.45;;;1.50;;
59828;SDS011;45708;51.848;107.620;2023-07-13T14:22:57;1.83;;;1.73;;
59828;SDS011;45708;51.848;107.620;2023-07-13T14:27:58;3.22;;;1.52;;
59828;SDS011;45708;51.848;107.620;2023-07-13T14:33:00;2.15;;;1.83;;
59828;SDS011;45708;51.848;107.620;2023-07-13T14:38:01;2.85;;;2.13;;
59828;SDS011;45708;51.848;107.620;2023-07-13T14:43:01;2.67;;;1.67;;
59828;SDS011;45708;51.848;107.620;2023-07-13T14:48:02;2.50;;;1.80;;
59828;SDS011;45708;51.848;107.620;2023-07-13T14:53:08;5.40;;;1.92;;
59828;SDS011;45708;51.848;107.620;2023-07-13T14:58:14;2.50;;;1.77;;
59828;SDS011;45708;51.848;107.620;2023-07-13T15:03:24;2.90;;;1.30;;
59828;SDS011;45708;51.848;107.620;2023-07-13T15:08:25;3.55;;;1.52;;
59828;SDS011;45708;51.848;107.620;2023-07-13T15:13:26;2.70;;;1.98;;
59828;SDS011;45708;51.848;107.620;2023-07-13T15:18:28;1.60;;;1.30;;
59828;SDS011;45708;51.848;107.620;2023-07-13T15:23:29;2.97;;;1.90;;
59828;SDS011;45708;51.848;107.620;2023-07-13T15:28:30;2.20;;;1.15;;
59828;SDS011;45708;51.848;107.620;2023-07-13T15:33:30;1.80;;;1.38;;
59828;SDS011;45708;51.848;107.620;2023-07-13T15:38:31;5.65;;;2.75;;
59828;SDS011;45708;51.848;107.620;2023-07-13T15:43:32;2.70;;;2.42;;
59828;SDS011;45708;51.848;107.620;2023-07-13T15:48:33;3.20;;;1.88;;
59828;SDS011;45708;51.848;107.620;2023-07-13T15:53:34;2.30;;;1.80;;
59828;SDS011;45708;51.848;107.620;2023-07-13T15:58:38;2.25;;;2.00;;
59828;SDS011;45708;51.848;107.620;2023-07-13T16:03:38;4.38;;;3.00;;
59828;SDS011;45708;51.848;107.620;2023-07-13T16:08:40;3.28;;;2.42;;
59828;SDS011;45708;51.848;107.620;2023-07-13T16:13:43;1.60;;;1.50;;
59828;SDS011;45708;51.848;107.620;2023-07-13T16:18:44;5.50;;;2.65;;
59828;SDS011;45708;51.848;107.620;2023-07-13T16:23:45;3.10;;;2.67;;
59828;SDS011;45708;51.848;107.620;2023-07-13T16:28:45;2.63;;;2.25;;
59828;SDS011;45708;51.848;107.620;2023-07-13T16:33:46;9.68;;;1.98;;
59828;SDS011;45708;51.848;107.620;2023-07-13T16:38:47;2.75;;;1.88;;
59828;SDS011;45708;51.848;107.620;2023-07-13T16:43:48;4.65;;;2.03;;
59828;SDS011;45708;51.848;107.620;2023-07-13T16:48:49;2.97;;;2.03;;
59828;SDS011;45708;51.848;107.620;2023-07-13T16:53:50;2.17;;;1.98;;
59828;SDS011;45708;51.848;107.620;2023-07-13T16:58:51;7.03;;;2.08;;
59828;SDS011;45708;51.848;107.620;2023-07-13T17:03:52;2.92;;;2.10;;
59828;SDS011;45708;51.848;107.620;2023-07-13T17:08:53;5.18;;;2.63;;
59828;SDS011;45708;51.848;107.620;2023-07-13T17:13:54;3.97;;;1.85;;
59828;SDS011;45708;51.848;107.620;2023-07-13T17:18:55;0.95;;;0.93;;
59828;SDS011;45708;51.848;107.620;2023-07-13T17:23:56;2.45;;;1.75;;
59828;SDS011;45708;51.848;107.620;2023-07-13T17:28:56;2.38;;;1.35;;
59828;SDS011;45708;51.848;107.620;2023-07-13T17:33:57;1.83;;;1.70;;
59828;SDS011;45708;51.848;107.620;2023-07-13T17:38:58;3.08;;;1.65;;
59828;SDS011;45708;51.848;107.620;2023-07-13T17:44:00;1.33;;;1.20;;
59828;SDS011;45708;51.848;107.620;2023-07-13T17:49:02;2.10;;;1.92;;
59828;SDS011;45708;51.848;107.620;2023-07-13T17:54:07;3.42;;;2.53;;
59828;SDS011;45708;51.848;107.620;2023-07-13T17:59:14;5.47;;;1.45;;
59828;SDS011;45708;51.848;107.620;2023-07-13T18:04:16;2.20;;;1.50;;
59828;SDS011;45708;51.848;107.620;2023-07-13T18:09:19;4.35;;;2.45;;
59828;SDS011;45708;51.848;107.620;2023-07-13T18:14:23;2.35;;;1.92;;
59828;SDS011;45708;51.848;107.620;2023-07-13T18:19:37;1.27;;;1.20;;
59828;SDS011;45708;51.848;107.620;2023-07-13T18:24:40;1.98;;;1.77;;
59828;SDS011;45708;51.848;107.620;2023-07-13T18:29:41;3.17;;;2.08;;
59828;SDS011;45708;51.848;107.620;2023-07-13T18:34:42;1.98;;;1.42;;
59828;SDS011;45708;51.848;107.620;2023-07-13T18:39:43;0.70;;;0.70;;
59828;SDS011;45708;51.848;107.620;2023-07-13T18:44:44;2.72;;;1.50;;
59828;SDS011;45708;51.848;107.620;2023-07-13T18:49:45;1.90;;;1.42;;
59828;SDS011;45708;51.848;107.620;2023-07-13T18:54:46;2.63;;;1.55;;
59828;SDS011;45708;51.848;107.620;2023-07-13T18:59:47;2.17;;;1.75;;
59828;SDS011;45708;51.848;107.620;2023-07-13T19:04:48;2.17;;;1.63;;
59828;SDS011;45708;51.848;107.620;2023-07-13T19:09:51;2.22;;;1.00;;
59828;SDS011;45708;51.848;107.620;2023-07-13T19:14:54;1.80;;;1.65;;
59828;SDS011;45708;51.848;107.620;2023-07-13T19:19:55;1.63;;;1.13;;
59828;SDS011;45708;51.848;107.620;2023-07-13T19:24:56;1.52;;;1.30;;
59828;SDS011;45708;51.848;107.620;2023-07-13T19:29:57;1.17;;;1.05;;
59828;SDS011;45708;51.848;107.620;2023-07-13T19:34:57;0.90;;;0.90;;
59828;SDS011;45708;51.848;107.620;2023-07-13T19:39:58;1.05;;;0.90;;
59828;SDS011;45708;51.848;107.620;2023-07-13T19:44:59;1.60;;;1.40;;
59828;SDS011;45708;51.848;107.620;2023-07-13T19:50:00;2.78;;;1.80;;
59828;SDS011;45708;51.848;107.620;2023-07-13T19:55:01;1.48;;;1.38;;
59828;SDS011;45708;51.848;107.620;2023-07-13T20:00:29;1.38;;;1.27;;
59828;SDS011;45708;51.848;107.620;2023-07-13T20:05:29;2.22;;;1.67;;
59828;SDS011;45708;51.848;107.620;2023-07-13T20:10:31;1.02;;;0.90;;
59828;SDS011;45708;51.848;107.620;2023-07-13T20:15:32;1.58;;;0.70;;
59828;SDS011;45708;51.848;107.620;2023-07-13T20:20:34;3.35;;;2.00;;
59828;SDS011;45708;51.848;107.620;2023-07-13T20:25:36;0.77;;;0.70;;
59828;SDS011;45708;51.848;107.620;2023-07-13T20:30:39;1.85;;;1.13;;
59828;SDS011;45708;51.848;107.620;2023-07-13T20:35:42;1.85;;;1.65;;
59828;SDS011;45708;51.848;107.620;2023-07-13T20:40:45;1.50;;;1.08;;
59828;SDS011;45708;51.848;107.620;2023-07-13T20:45:48;1.90;;;1.80;;
59828;SDS011;45708;51.848;107.620;2023-07-13T20:50:57;1.45;;;1.35;;
59828;SDS011;45708;51.848;107.620;2023-07-13T20:55:59;1.15;;;1.00;;
59828;SDS011;45708;51.848;107.620;2023-07-13T21:01:00;2.80;;;2.08;;
59828;SDS011;45708;51.848;107.620;2023-07-13T21:06:05;0.93;;;0.88;;
59828;SDS011;45708;51.848;107.620;2023-07-13T21:11:12;2.38;;;2.03;;
59828;SDS011;45708;51.848;107.620;2023-07-13T21:16:15;4.40;;;1.45;;
59828;SDS011;45708;51.848;107.620;2023-07-13T21:21:19;2.22;;;1.58;;
59828;SDS011;45708;51.848;107.620;2023-07-13T21:26:22;3.25;;;1.88;;
59828;SDS011;45708;51.848;107.620;2023-07-13T21:31:24;2.70;;;1.73;;
59828;SDS011;45708;51.848;107.620;2023-07-13T21:36:27;2.28;;;1.60;;
59828;SDS011;45708;51.848;107.620;2023-07-13T21:41:33;0.85;;;0.85;;
59828;SDS011;45708;51.848;107.620;2023-07-13T21:46:35;4.82;;;2.28;;
59828;SDS011;45708;51.848;107.620;2023-07-13T21:51:37;1.35;;;1.20;;
59828;SDS011;45708;51.848;107.620;2023-07-13T21:56:38;1.48;;;1.23;;
59828;SDS011;45708;51.848;107.620;2023-07-13T22:01:39;1.48;;;1.33;;
59828;SDS011;45708;51.848;107.620;2023-07-13T22:06:40;3.88;;;2.10;;
59828;SDS011;45708;51.848;107.620;2023-07-13T22:11:40;3.30;;;2.30;;
59828;SDS011;45708;51.848;107.620;2023-07-13T22:16:42;5.13;;;2.60;;
59828;SDS011;45708;51.848;107.620;2023-07-13T22:21:43;1.63;;;1.38;;
59828;SDS011;45708;51.848;107.620;2023-07-13T22:26:44;3.42;;;2.22;;
59828;SDS011;45708;51.848;107.620;2023-07-13T22:31:45;2.33;;;2.13;;
59828;SDS011;45708;51.848;107.620;2023-07-13T22:36:46;3.72;;;2.67;;
59828;SDS011;45708;51.848;107.620;2023-07-13T22:41:47;2.55;;;1.92;;
59828;SDS011;45708;51.848;107.620;2023-07-13T22:46:48;3.63;;;2.05;;
59828;SDS011;45708;51.848;107.620;2023-07-13T22:51:50;5.22;;;3.35;;
59828;SDS011;45708;51.848;107.620;2023-07-13T22:56:52;2.13;;;1.70;;
59828;SDS011;45708;51.848;107.620;2023-07-13T23:01:53;8.43;;;3.05;;
59828;SDS011;45708;51.848;107.620;2023-07-13T23:06:54;2.80;;;2.35;;
59828;SDS011;45708;51.848;107.620;2023-07-13T23:11:57;2.45;;;2.25;;
59828;SDS011;45708;51.848;107.620;2023-07-13T23:16:58;2.47;;;2.28;;
59828;SDS011;45708;51.848;107.620;2023-07-13T23:21:59;3.22;;;2.42;;
59828;SDS011;45708;51.848;107.620;2023-07-13T23:27:01;3.55;;;2.08;;
59828;SDS011;45708;51.848;107.620;2023-07-13T23:32:02;3.95;;;2.20;;
59828;SDS011;45708;51.848;107.620;2023-07-13T23:37:08;2.30;;;2.08;;
59828;SDS011;45708;51.848;107.620;2023-07-13T23:42:15;3.88;;;2.17;;
59828;SDS011;45708;51.848;107.620;2023-07-13T23:47:16;4.57;;;2.60;;
59828;SDS011;45708;51.848;107.620;2023-07-13T23:52:17;4.40;;;2.92;;
59828;SDS011;45708;51.848;107.620;2023-07-13T23:57:18;2.78;;;2.58;;
